createdAt,value
2022-09-05T00:00:16.415Z,0.00
2022-09-05T00:01:16.379Z,0.00
2022-09-05T00:02:17.364Z,0.00
2022-09-05T00:03:16.486Z,0.00
2022-09-05T00:04:25.119Z,0.00
2022-09-05T00:05:17.366Z,0.00
2022-09-05T00:06:16.288Z,0.00
2022-09-05T00:07:41.280Z,0.00
2022-09-05T00:08:17.299Z,0.00
2022-09-05T00:09:16.282Z,0.00
2022-09-05T00:10:16.278Z,0.00
2022-09-05T00:11:42.826Z,0.00
2022-09-05T00:12:17.238Z,0.00
2022-09-05T00:13:16.244Z,0.00
2022-09-05T00:14:16.252Z,0.00
2022-09-05T00:15:18.908Z,0.00
2022-09-05T00:16:16.216Z,0.00
2022-09-05T00:17:16.165Z,0.00
2022-09-05T00:22:18.555Z,0.00
2022-09-05T00:23:12.111Z,0.00
2022-09-05T00:24:24.864Z,0.00
2022-09-05T00:24:25.693Z,0.00
2022-09-05T00:24:29.062Z,0.00
2022-09-05T00:24:30.905Z,0.00
2022-09-05T00:24:36.684Z,0.00
2022-09-05T00:25:32.950Z,0.00
2022-09-05T00:26:17.111Z,0.00
2022-09-05T00:27:16.059Z,0.00
2022-09-05T00:28:26.635Z,0.00
2022-09-05T00:29:20.429Z,0.00
2022-09-05T00:31:08.222Z,0.00
2022-09-05T00:31:54.489Z,0.00
2022-09-05T00:32:17.107Z,0.00
2022-09-05T00:33:17.193Z,0.00
2022-09-05T00:34:15.970Z,0.00
2022-09-05T00:35:15.978Z,0.00
2022-09-05T00:36:15.977Z,0.00
2022-09-05T00:37:17.028Z,0.00
2022-09-05T00:38:15.970Z,0.00
2022-09-05T00:39:15.919Z,0.00
2022-09-05T00:40:18.401Z,0.00
2022-09-05T00:41:15.924Z,0.00
2022-09-05T00:42:15.919Z,0.00
2022-09-05T00:43:15.905Z,0.00
2022-09-05T00:44:15.914Z,0.00
2022-09-05T00:45:19.451Z,0.00
2022-09-05T00:46:15.958Z,0.00
2022-09-05T00:47:15.864Z,0.00
2022-09-05T00:48:15.826Z,0.00
2022-09-05T00:49:15.832Z,0.00
2022-09-05T00:50:15.790Z,0.00
2022-09-05T00:51:15.787Z,0.00
2022-09-05T00:52:15.794Z,0.00
2022-09-05T00:53:15.804Z,0.00
2022-09-05T00:54:15.856Z,0.00
2022-09-05T00:55:15.738Z,0.00
2022-09-05T00:56:15.722Z,0.00
2022-09-05T00:57:18.155Z,0.00
2022-09-05T00:58:15.704Z,0.00
2022-09-05T00:59:15.730Z,0.00
2022-09-05T01:00:17.933Z,0.00
2022-09-05T01:01:21.004Z,0.00
2022-09-05T01:02:16.842Z,0.00
2022-09-05T01:03:15.857Z,0.00
2022-09-05T01:04:15.640Z,0.00
2022-09-05T01:05:15.635Z,0.00
2022-09-05T01:06:15.639Z,0.00
2022-09-05T01:07:15.652Z,0.00
2022-09-05T01:08:15.588Z,0.00
2022-09-05T01:09:15.607Z,0.00
2022-09-05T01:10:15.578Z,0.00
2022-09-05T01:11:15.587Z,0.00
2022-09-05T01:12:15.584Z,0.00
2022-09-05T01:13:15.530Z,0.00
2022-09-05T01:14:15.531Z,0.00
2022-09-05T01:15:15.545Z,0.00
2022-09-05T01:16:15.580Z,0.00
2022-09-05T01:17:15.494Z,0.00
2022-09-05T01:18:15.478Z,0.00
2022-09-05T01:19:15.920Z,0.00
2022-09-05T01:20:19.498Z,0.00
2022-09-05T01:21:15.454Z,0.00
2022-09-05T01:22:15.446Z,0.00
2022-09-05T01:23:15.471Z,0.00
2022-09-05T01:24:15.405Z,0.00
2022-09-05T01:25:15.399Z,0.00
2022-09-05T01:26:15.412Z,0.00
2022-09-05T01:27:15.379Z,0.00
2022-09-05T01:29:16.293Z,0.00
2022-09-05T01:29:19.559Z,0.00
2022-09-05T01:30:15.336Z,0.00
2022-09-05T01:31:15.417Z,0.00
2022-09-05T01:32:15.331Z,0.00
2022-09-05T01:33:15.319Z,0.00
2022-09-05T01:34:15.292Z,0.00
2022-09-05T01:35:15.285Z,0.00
2022-09-05T01:36:15.270Z,0.00
2022-09-05T01:37:33.711Z,0.00
2022-09-05T01:38:16.273Z,0.00
2022-09-05T01:39:39.292Z,0.00
2022-09-05T01:40:17.037Z,0.00
2022-09-05T01:41:18.599Z,0.00
2022-09-05T01:42:15.249Z,0.00
2022-09-05T01:43:15.194Z,0.00
2022-09-05T01:44:15.188Z,0.00
2022-09-05T01:45:15.170Z,0.00
2022-09-05T01:46:15.235Z,0.00
2022-09-05T01:47:15.165Z,0.00
2022-09-05T01:48:16.179Z,0.00
2022-09-05T01:49:15.132Z,0.00
2022-09-05T01:50:15.167Z,0.00
2022-09-05T01:51:28.877Z,0.00
2022-09-05T01:52:16.100Z,0.00
2022-09-05T01:53:15.079Z,0.00
2022-09-05T01:54:23.750Z,0.00
2022-09-05T01:55:16.085Z,0.00
2022-09-05T01:56:15.067Z,0.00
2022-09-05T01:57:16.110Z,0.00
2022-09-05T01:58:15.019Z,0.00
2022-09-05T01:59:15.028Z,0.00
2022-09-05T02:00:15.005Z,0.00
2022-09-05T02:01:30.136Z,0.00
2022-09-05T02:02:16.192Z,0.00
2022-09-05T02:03:15.006Z,0.00
2022-09-05T02:04:14.954Z,0.00
2022-09-05T02:05:14.936Z,0.00
2022-09-05T02:06:14.943Z,0.00
2022-09-05T02:07:19.436Z,0.00
2022-09-05T02:08:15.969Z,0.00
2022-09-05T02:09:14.889Z,0.00
2022-09-05T02:10:14.881Z,0.00
2022-09-05T02:11:14.875Z,0.00
2022-09-05T02:12:14.909Z,0.00
2022-09-05T02:13:14.886Z,0.00
2022-09-05T02:14:14.834Z,0.00
2022-09-05T02:15:15.825Z,0.00
2022-09-05T02:16:14.959Z,0.00
2022-09-05T02:17:23.374Z,0.00
2022-09-05T02:18:15.786Z,0.00
2022-09-05T02:19:14.825Z,0.00
2022-09-05T02:20:14.765Z,0.00
2022-09-05T02:21:15.788Z,0.00
2022-09-05T02:22:14.752Z,0.00
2022-09-05T02:23:38.927Z,0.00
2022-09-05T02:24:15.771Z,0.00
2022-09-05T02:26:01.268Z,0.00
2022-09-05T02:26:15.696Z,0.00
2022-09-05T02:27:31.855Z,0.00
2022-09-05T02:28:15.697Z,0.00
2022-09-05T02:29:28.935Z,0.00
2022-09-05T02:30:15.719Z,0.00
2022-09-05T02:31:20.205Z,0.00
2022-09-05T02:32:15.673Z,0.00
2022-09-05T02:33:14.620Z,0.00
2022-09-05T02:34:14.625Z,0.00
2022-09-05T02:35:14.617Z,0.00
2022-09-05T02:36:14.635Z,0.00
2022-09-05T02:37:14.575Z,0.00
2022-09-05T02:40:59.863Z,0.00
2022-09-05T02:45:03.804Z,0.00
2022-09-05T02:45:06.239Z,0.00
2022-09-05T02:45:11.421Z,0.00
2022-09-05T02:45:15.180Z,0.00
2022-09-05T02:45:18.590Z,0.00
2022-09-05T02:45:21.085Z,0.00
2022-09-05T02:45:25.812Z,0.00
2022-09-05T02:46:15.519Z,0.00
2022-09-05T02:47:14.464Z,0.00
2022-09-05T02:48:15.725Z,0.00
2022-09-05T02:52:38.098Z,0.00
2022-09-05T02:52:42.427Z,0.00
2022-09-05T02:57:25.826Z,0.00
2022-09-05T02:57:29.160Z,0.00
2022-09-05T02:57:29.659Z,0.00
2022-09-05T02:57:35.416Z,0.00
2022-09-05T02:57:39.467Z,0.00
2022-09-05T02:57:42.313Z,0.00
2022-09-05T02:57:46.493Z,0.00
2022-09-05T02:58:15.907Z,0.00
2022-09-05T02:59:14.479Z,0.00
2022-09-05T03:00:14.318Z,0.00
2022-09-05T03:01:14.403Z,0.00
2022-09-05T03:02:25.249Z,0.00
2022-09-05T03:03:15.500Z,0.00
2022-09-05T03:04:14.284Z,0.00
2022-09-05T03:05:14.268Z,0.00
2022-09-05T03:06:14.256Z,0.00
2022-09-05T03:07:14.240Z,0.00
2022-09-05T03:08:14.269Z,0.00
2022-09-05T03:09:16.945Z,0.00
2022-09-05T03:10:14.219Z,0.00
2022-09-05T03:11:14.194Z,0.00
2022-09-05T03:12:29.450Z,0.00
2022-09-05T03:13:15.224Z,0.00
2022-09-05T03:14:14.208Z,0.00
2022-09-05T03:15:18.813Z,0.00
2022-09-05T03:16:15.213Z,0.00
2022-09-05T03:17:14.126Z,0.00
2022-09-05T03:18:31.422Z,0.00
2022-09-05T03:19:15.130Z,0.00
2022-09-05T03:20:14.130Z,0.00
2022-09-05T03:21:14.120Z,0.00
2022-09-05T03:22:14.075Z,0.00
2022-09-05T03:23:21.984Z,0.00
2022-09-05T03:24:14.052Z,0.00
2022-09-05T03:25:14.083Z,0.00
2022-09-05T03:26:14.056Z,0.00
2022-09-05T03:27:14.016Z,0.00
2022-09-05T03:28:14.043Z,0.00
2022-09-05T03:29:14.005Z,0.00
2022-09-05T03:30:13.992Z,0.00
2022-09-05T03:31:20.563Z,0.00
2022-09-05T03:32:14.960Z,0.00
2022-09-05T03:33:14.001Z,0.00
2022-09-05T03:34:13.938Z,0.00
2022-09-05T03:35:13.926Z,0.00
2022-09-05T03:36:13.932Z,0.00
2022-09-05T03:37:13.934Z,0.00
2022-09-05T03:38:13.944Z,0.00
2022-09-05T03:39:13.935Z,0.00
2022-09-05T03:40:15.211Z,0.00
2022-09-05T03:41:13.859Z,0.00
2022-09-05T03:42:14.622Z,0.00
2022-09-05T03:43:13.864Z,0.00
2022-09-05T03:44:13.881Z,0.00
2022-09-05T03:45:13.817Z,0.00
2022-09-05T03:46:13.941Z,0.00
2022-09-05T03:47:13.820Z,0.00
2022-09-05T03:48:23.075Z,0.00
2022-09-05T03:49:17.612Z,0.00
2022-09-05T03:55:12.142Z,0.00
2022-09-05T03:57:04.529Z,0.00
2022-09-05T03:57:10.353Z,0.00
2022-09-05T03:57:14.288Z,0.00
2022-09-05T03:57:14.440Z,0.00
2022-09-05T03:57:16.382Z,0.00
2022-09-05T03:57:25.337Z,0.00
2022-09-05T03:57:32.277Z,0.00
2022-09-05T03:58:16.950Z,0.00
2022-09-05T03:59:13.700Z,0.00
2022-09-05T04:00:13.651Z,0.00
2022-09-05T04:03:20.248Z,0.00
2022-09-05T04:06:58.312Z,0.00
2022-09-05T04:08:06.417Z,0.00
2022-09-05T04:08:08.423Z,0.00
2022-09-05T04:08:18.448Z,0.00
2022-09-05T04:08:19.030Z,0.00
2022-09-05T04:08:31.416Z,0.00
2022-09-05T04:08:34.236Z,0.00
2022-09-05T04:09:22.720Z,0.00
2022-09-05T04:10:14.726Z,0.00
2022-09-05T04:11:13.560Z,0.00
2022-09-05T04:12:13.553Z,0.00
2022-09-05T04:13:13.501Z,0.00
2022-09-05T04:14:13.526Z,0.00
2022-09-05T04:15:13.481Z,0.00
2022-09-05T04:16:13.556Z,0.00
2022-09-05T04:17:13.486Z,0.00
2022-09-05T04:18:13.487Z,4.00
2022-09-05T04:19:13.464Z,4.00
2022-09-05T04:20:13.438Z,0.00
2022-09-05T04:21:13.420Z,4.00
2022-09-05T04:22:13.422Z,4.00
2022-09-05T04:23:13.391Z,4.00
2022-09-05T04:24:13.399Z,4.00
2022-09-05T04:25:13.446Z,8.00
2022-09-05T04:26:13.385Z,8.00
2022-09-05T04:27:13.359Z,8.00
2022-09-05T04:28:13.354Z,8.00
2022-09-05T04:29:13.327Z,12.00
2022-09-05T04:30:38.634Z,12.00
2022-09-05T04:31:14.333Z,12.00
2022-09-05T04:32:19.040Z,16.00
2022-09-05T04:33:14.323Z,16.00
2022-09-05T04:34:13.291Z,16.00
2022-09-05T04:35:13.266Z,20.00
2022-09-05T04:36:18.210Z,24.00
2022-09-05T04:37:14.249Z,24.00
2022-09-05T04:38:13.230Z,28.00
2022-09-05T04:39:13.225Z,28.00
2022-09-05T04:40:13.246Z,32.00
2022-09-05T04:41:13.242Z,32.00
2022-09-05T04:42:13.223Z,36.00
2022-09-05T04:43:13.166Z,40.00
2022-09-05T04:44:13.169Z,44.00
2022-09-05T04:45:13.151Z,48.00
2022-09-05T04:46:18.277Z,52.00
2022-09-05T04:47:15.591Z,52.00
2022-09-05T04:48:13.119Z,56.00
2022-09-05T04:49:13.104Z,64.00
2022-09-05T04:50:13.098Z,64.00
2022-09-05T04:51:13.296Z,68.00
2022-09-05T04:52:13.810Z,68.00
2022-09-05T04:53:14.058Z,76.00
2022-09-05T04:54:13.067Z,80.00
2022-09-05T04:55:13.064Z,84.00
2022-09-05T04:56:13.035Z,88.00
2022-09-05T04:57:14.542Z,88.00
2022-09-05T04:58:13.014Z,92.00
2022-09-05T05:03:18.629Z,96.00
2022-09-05T05:05:42.102Z,100.00
2022-09-05T05:06:02.110Z,104.00
2022-09-05T05:06:05.740Z,108.00
2022-09-05T05:06:08.909Z,112.00
2022-09-05T05:06:12.748Z,116.00
2022-09-05T05:06:16.673Z,108.00
2022-09-05T05:06:44.054Z,120.00
2022-09-05T05:07:14.030Z,120.00
2022-09-05T05:08:13.047Z,128.00
2022-09-05T05:09:12.881Z,128.00
2022-09-05T05:10:57.403Z,136.00
2022-09-05T05:17:25.336Z,140.00
2022-09-05T05:17:53.699Z,136.00
2022-09-05T05:18:03.289Z,144.00
2022-09-05T05:18:08.807Z,148.00
2022-09-05T05:18:10.385Z,152.00
2022-09-05T05:18:12.650Z,152.00
2022-09-05T05:18:14.682Z,156.00
2022-09-05T05:18:40.987Z,160.00
2022-09-05T05:19:18.753Z,160.00
2022-09-05T05:20:43.056Z,168.00
2022-09-05T05:21:13.756Z,168.00
2022-09-05T05:22:12.739Z,172.00
2022-09-05T05:23:12.746Z,176.00
2022-09-05T05:24:12.738Z,180.00
2022-09-05T05:25:12.724Z,184.00
2022-09-05T05:26:12.698Z,188.00
2022-09-05T05:27:12.745Z,188.00
2022-09-05T05:28:22.579Z,192.00
2022-09-05T05:29:18.834Z,196.00
2022-09-05T05:30:13.680Z,196.00
2022-09-05T05:31:12.684Z,200.00
2022-09-05T05:32:12.644Z,200.00
2022-09-05T05:33:13.638Z,200.00
2022-09-05T05:34:24.562Z,204.00
2022-09-05T05:35:13.616Z,208.00
2022-09-05T05:36:12.572Z,208.00
2022-09-05T05:37:12.691Z,208.00
2022-09-05T05:38:12.548Z,208.00
2022-09-05T05:39:12.552Z,212.00
2022-09-05T05:40:12.664Z,212.00
2022-09-05T05:41:12.539Z,216.00
2022-09-05T05:42:20.980Z,216.00
2022-09-05T05:43:13.500Z,216.00
2022-09-05T05:44:12.482Z,220.00
2022-09-05T05:45:12.475Z,220.00
2022-09-05T05:46:12.558Z,224.00
2022-09-05T05:47:12.479Z,224.00
2022-09-05T05:48:12.481Z,224.00
2022-09-05T05:49:12.441Z,228.00
2022-09-05T05:50:12.422Z,228.00
2022-09-05T05:51:12.429Z,232.00
2022-09-05T05:52:12.415Z,236.00
2022-09-05T05:53:12.382Z,240.00
2022-09-05T05:54:13.370Z,240.00
2022-09-05T05:55:50.600Z,244.00
2022-09-05T05:56:13.363Z,244.00
2022-09-05T05:57:14.982Z,248.00
2022-09-05T05:58:12.358Z,252.00
2022-09-05T05:59:12.317Z,252.00
2022-09-05T06:00:13.440Z,260.00
2022-09-05T06:01:23.085Z,260.00
2022-09-05T06:02:13.399Z,264.00
2022-09-05T06:03:26.226Z,268.00
2022-09-05T06:04:13.270Z,268.00
2022-09-05T06:05:12.287Z,276.00
2022-09-05T06:06:12.236Z,276.00
2022-09-05T06:07:12.236Z,284.00
2022-09-05T06:12:06.968Z,288.00
2022-09-05T06:12:38.765Z,288.00
2022-09-05T06:14:48.507Z,292.00
2022-09-05T06:15:02.059Z,296.00
2022-09-05T06:15:04.035Z,304.00
2022-09-05T06:15:06.176Z,308.00
2022-09-05T06:15:06.828Z,304.00
2022-09-05T06:15:17.738Z,312.00
2022-09-05T06:16:13.205Z,316.00
2022-09-05T06:17:12.126Z,324.00
2022-09-05T06:18:12.105Z,328.00
2022-09-05T06:19:12.089Z,332.00
2022-09-05T06:22:07.008Z,336.00
2022-09-05T06:22:09.314Z,340.00
2022-09-05T06:22:16.844Z,372.00
2022-09-05T06:23:32.105Z,388.00
2022-09-05T06:24:13.042Z,396.00
2022-09-05T06:25:17.034Z,408.00
2022-09-05T06:26:13.028Z,412.00
2022-09-05T06:27:12.047Z,420.00
2022-09-05T06:28:18.396Z,388.00
2022-09-05T06:29:13.001Z,396.00
2022-09-05T06:30:12.017Z,396.00
2022-09-05T06:31:30.440Z,432.00
2022-09-05T06:32:13.565Z,436.00
2022-09-05T06:33:11.933Z,428.00
2022-09-05T06:34:27.260Z,448.00
2022-09-05T06:35:12.914Z,456.00
2022-09-05T06:36:11.919Z,464.00
2022-09-05T06:37:11.905Z,468.00
2022-09-05T06:38:11.911Z,476.00
2022-09-05T06:39:11.981Z,484.00
2022-09-05T06:40:12.002Z,472.00
2022-09-05T06:41:11.876Z,520.00
2022-09-05T06:42:15.077Z,528.00
2022-09-05T06:43:12.831Z,528.00
2022-09-05T06:44:11.851Z,520.00
2022-09-05T06:45:27.466Z,516.00
2022-09-05T06:46:12.824Z,528.00
2022-09-05T06:47:24.427Z,540.00
2022-09-05T06:48:13.621Z,544.00
2022-09-05T06:49:30.116Z,548.00
2022-09-05T06:50:27.209Z,544.00
2022-09-05T06:51:12.775Z,532.00
2022-09-05T06:52:16.567Z,552.00
2022-09-05T06:53:19.544Z,604.00
2022-09-05T06:54:12.702Z,552.00
2022-09-05T06:55:11.683Z,556.00
2022-09-05T06:56:11.686Z,580.00
2022-09-05T06:57:11.722Z,624.00
2022-09-05T06:58:11.694Z,648.00
2022-09-05T06:59:11.648Z,656.00
2022-09-05T07:00:19.587Z,672.00
2022-09-05T07:01:12.818Z,652.00
2022-09-05T07:02:11.746Z,716.00
2022-09-05T07:03:13.482Z,712.00
2022-09-05T07:04:33.234Z,704.00
2022-09-05T07:05:36.971Z,712.00
2022-09-05T07:06:19.835Z,700.00
2022-09-05T07:07:12.569Z,584.00
2022-09-05T07:08:33.462Z,568.00
2022-09-05T07:09:12.536Z,592.00
2022-09-05T07:10:35.024Z,596.00
2022-09-05T07:11:16.728Z,600.00
2022-09-05T07:12:11.487Z,608.00
2022-09-05T07:13:11.503Z,624.00
2022-09-05T07:14:11.482Z,632.00
2022-09-05T07:15:11.460Z,644.00
2022-09-05T07:16:11.590Z,652.00
2022-09-05T07:17:11.466Z,668.00
2022-09-05T07:18:11.432Z,692.00
2022-09-05T07:19:11.430Z,712.00
2022-09-05T07:20:11.432Z,740.00
2022-09-05T07:21:17.336Z,756.00
2022-09-05T07:22:46.040Z,764.00
2022-09-05T07:23:47.676Z,764.00
2022-09-05T07:24:12.944Z,764.00
2022-09-05T07:25:11.377Z,764.00
2022-09-05T07:26:29.320Z,764.00
2022-09-05T07:27:12.697Z,768.00
2022-09-05T07:28:28.555Z,780.00
2022-09-05T07:29:12.300Z,784.00
2022-09-05T07:30:11.301Z,776.00
2022-09-05T07:31:11.384Z,756.00
2022-09-05T07:32:11.339Z,752.00
2022-09-05T07:33:11.258Z,748.00
2022-09-05T07:34:21.119Z,752.00
2022-09-05T07:35:12.274Z,764.00
2022-09-05T07:36:11.242Z,784.00
2022-09-05T07:37:15.442Z,800.00
2022-09-05T07:38:11.202Z,804.00
2022-09-05T07:39:28.343Z,796.00
2022-09-05T07:40:26.316Z,800.00
2022-09-05T07:41:12.193Z,800.00
2022-09-05T07:42:11.170Z,792.00
2022-09-05T07:43:11.141Z,788.00
2022-09-05T07:44:11.148Z,776.00
2022-09-05T07:45:11.139Z,748.00
2022-09-05T07:46:11.260Z,760.00
2022-09-05T07:47:11.121Z,764.00
2022-09-05T07:48:11.131Z,756.00
2022-09-05T07:49:11.075Z,752.00
2022-09-05T07:51:36.097Z,748.00
2022-09-05T07:56:46.587Z,732.00
2022-09-05T07:56:54.607Z,716.00
2022-09-05T07:56:54.862Z,700.00
2022-09-05T07:56:58.769Z,676.00
2022-09-05T07:56:58.769Z,660.00
2022-09-05T07:57:07.930Z,652.00
2022-09-05T07:57:27.192Z,620.00
2022-09-05T07:58:12.011Z,604.00
2022-09-05T07:59:10.984Z,588.00
2022-09-05T08:00:26.637Z,576.00
2022-09-05T08:01:12.043Z,568.00
2022-09-05T08:02:10.930Z,560.00
2022-09-05T08:03:10.915Z,532.00
2022-09-05T08:04:10.922Z,528.00
2022-09-05T08:05:10.975Z,512.00
2022-09-05T08:06:10.899Z,508.00
2022-09-05T08:07:45.716Z,504.00
2022-09-05T08:08:11.875Z,496.00
2022-09-05T08:10:05.210Z,500.00
2022-09-05T08:10:15.865Z,508.00
2022-09-05T08:11:22.842Z,516.00
2022-09-05T08:12:11.855Z,516.00
2022-09-05T08:13:23.574Z,508.00
2022-09-05T08:14:40.571Z,504.00
2022-09-05T08:15:14.166Z,500.00
2022-09-05T08:16:13.640Z,496.00
2022-09-05T08:17:10.758Z,492.00
2022-09-05T08:18:10.768Z,480.00
2022-09-05T08:19:10.771Z,468.00
2022-09-05T08:20:10.725Z,460.00
2022-09-05T08:21:10.712Z,452.00
2022-09-05T08:22:10.719Z,444.00
2022-09-05T08:23:10.701Z,436.00
2022-09-05T08:24:13.184Z,424.00
2022-09-05T08:25:10.754Z,424.00
2022-09-05T08:26:10.662Z,432.00
2022-09-05T08:27:16.112Z,432.00
2022-09-05T08:28:11.643Z,428.00
2022-09-05T08:29:10.641Z,436.00
2022-09-05T08:30:26.652Z,460.00
2022-09-05T08:31:11.704Z,480.00
2022-09-05T08:32:10.591Z,492.00
2022-09-05T08:33:11.920Z,504.00
2022-09-05T08:34:10.569Z,508.00
2022-09-05T08:35:10.563Z,504.00
2022-09-05T08:36:10.543Z,492.00
2022-09-05T08:37:10.547Z,492.00
2022-09-05T08:38:10.598Z,484.00
2022-09-05T08:39:10.555Z,480.00
2022-09-05T08:40:12.079Z,476.00
2022-09-05T08:41:10.511Z,468.00
2022-09-05T08:42:10.477Z,472.00
2022-09-05T08:46:36.584Z,472.00
2022-09-05T08:46:37.993Z,472.00
2022-09-05T08:46:40.699Z,472.00
2022-09-05T08:46:40.699Z,476.00
2022-09-05T08:47:11.500Z,484.00
2022-09-05T08:48:10.409Z,488.00
2022-09-05T08:49:12.399Z,500.00
2022-09-05T08:50:11.400Z,508.00
2022-09-05T08:51:10.383Z,516.00
2022-09-05T08:52:10.374Z,516.00
2022-09-05T08:53:26.830Z,524.00
2022-09-05T08:54:11.605Z,528.00
2022-09-05T08:55:10.358Z,532.00
2022-09-05T08:56:10.317Z,540.00
2022-09-05T08:57:10.319Z,544.00
2022-09-05T08:58:10.317Z,556.00
2022-09-05T08:59:31.601Z,568.00
2022-09-05T09:00:18.528Z,572.00
2022-09-05T09:01:11.845Z,576.00
2022-09-05T09:02:46.673Z,580.00
2022-09-05T09:03:11.311Z,604.00
2022-09-05T09:04:11.519Z,612.00
2022-09-05T09:05:14.686Z,624.00
2022-09-05T09:06:13.760Z,636.00
2022-09-05T09:07:47.264Z,652.00
2022-09-05T09:08:11.204Z,660.00
2022-09-05T09:09:10.195Z,676.00
2022-09-05T09:10:10.160Z,692.00
2022-09-05T09:11:10.173Z,704.00
2022-09-05T09:12:10.152Z,724.00
2022-09-05T09:13:10.161Z,736.00
2022-09-05T09:14:10.135Z,736.00
2022-09-05T09:15:10.125Z,728.00
2022-09-05T09:16:10.153Z,704.00
2022-09-05T09:17:10.095Z,680.00
2022-09-05T09:18:10.363Z,652.00
2022-09-05T09:19:10.066Z,632.00
2022-09-05T09:20:10.068Z,608.00
2022-09-05T09:21:10.043Z,600.00
2022-09-05T09:22:10.048Z,580.00
2022-09-05T09:23:30.452Z,568.00
2022-09-05T09:24:11.011Z,564.00
2022-09-05T09:25:14.436Z,580.00
2022-09-05T09:26:10.994Z,604.00
2022-09-05T09:27:09.974Z,636.00
2022-09-05T09:28:49.645Z,664.00
2022-09-05T09:29:10.953Z,692.00
2022-09-05T09:30:09.936Z,704.00
2022-09-05T09:31:10.001Z,704.00
2022-09-05T09:32:09.910Z,708.00
2022-09-05T09:33:09.899Z,704.00
2022-09-05T09:34:09.920Z,688.00
2022-09-05T09:35:09.908Z,668.00
2022-09-05T09:36:09.878Z,640.00
2022-09-05T09:37:09.886Z,620.00
2022-09-05T09:38:09.848Z,596.00
2022-09-05T09:39:25.992Z,576.00
2022-09-05T09:40:10.928Z,552.00
2022-09-05T09:41:09.869Z,544.00
2022-09-05T09:42:09.818Z,524.00
2022-09-05T09:43:10.813Z,524.00
2022-09-05T09:44:09.786Z,520.00
2022-09-05T09:45:22.979Z,504.00
2022-09-05T09:46:10.820Z,500.00
2022-09-05T09:47:09.749Z,488.00
2022-09-05T09:48:09.759Z,492.00
2022-09-05T09:49:22.757Z,496.00
2022-09-05T09:50:10.722Z,496.00
2022-09-05T09:51:09.710Z,496.00
2022-09-05T09:52:20.629Z,488.00
2022-09-05T09:53:10.702Z,488.00
2022-09-05T09:54:09.706Z,484.00
2022-09-05T09:55:09.660Z,484.00
2022-09-05T09:56:10.664Z,484.00
2022-09-05T09:57:09.647Z,476.00
2022-09-05T09:58:09.623Z,480.00
2022-09-05T09:59:09.615Z,476.00
2022-09-05T10:00:09.626Z,476.00
2022-09-05T10:01:35.366Z,468.00
2022-09-05T10:03:02.180Z,468.00
2022-09-05T10:09:50.553Z,452.00
2022-09-05T10:09:52.530Z,464.00
2022-09-05T10:10:36.342Z,440.00
2022-09-05T10:10:38.624Z,488.00
2022-09-05T10:10:44.036Z,464.00
2022-09-05T10:10:50.601Z,452.00
2022-09-05T10:10:50.761Z,448.00
2022-09-05T10:10:53.340Z,480.00
2022-09-05T10:12:10.566Z,500.00
2022-09-05T10:13:09.462Z,512.00
2022-09-05T10:14:09.736Z,524.00
2022-09-05T10:15:30.491Z,536.00
2022-09-05T10:16:10.531Z,544.00
2022-09-05T10:17:09.476Z,544.00
2022-09-05T10:18:09.425Z,496.00
2022-09-05T10:19:09.399Z,484.00
2022-09-05T10:20:11.194Z,476.00
2022-09-05T10:21:16.152Z,464.00
2022-09-05T10:23:10.350Z,440.00
2022-09-05T10:24:09.382Z,436.00
2022-09-05T10:25:16.506Z,436.00
2022-09-05T10:26:10.316Z,432.00
2022-09-05T10:27:09.360Z,424.00
2022-09-05T10:28:09.304Z,412.00
2022-09-05T10:29:36.804Z,404.00
2022-09-05T10:30:10.377Z,400.00
2022-09-05T10:32:34.699Z,396.00
2022-09-05T10:35:02.828Z,388.00
2022-09-05T10:35:17.074Z,384.00
2022-09-05T10:35:21.132Z,372.00
2022-09-05T10:35:22.834Z,380.00
2022-09-05T10:36:13.977Z,364.00
2022-09-05T10:37:10.201Z,360.00
2022-09-05T10:38:10.613Z,356.00
2022-09-05T10:39:13.540Z,356.00
2022-09-05T10:40:09.227Z,352.00
2022-09-05T10:41:22.587Z,352.00
2022-09-05T10:42:10.167Z,348.00
2022-09-05T10:43:09.158Z,344.00
2022-09-05T10:44:09.123Z,340.00
2022-09-05T10:45:09.094Z,336.00
2022-09-05T10:46:09.227Z,336.00
2022-09-05T10:47:09.198Z,356.00
2022-09-05T10:48:13.029Z,372.00
2022-09-05T10:49:09.068Z,372.00
2022-09-05T10:50:09.145Z,372.00
2022-09-05T10:51:09.057Z,368.00
2022-09-05T10:52:18.655Z,368.00
2022-09-05T10:53:10.005Z,364.00
2022-09-05T10:54:09.022Z,364.00
2022-09-05T10:55:15.235Z,364.00
2022-09-05T10:56:10.018Z,364.00
2022-09-05T10:57:08.962Z,364.00
2022-09-05T10:58:09.002Z,360.00
2022-09-05T11:02:16.277Z,360.00
2022-09-05T11:02:20.877Z,364.00
2022-09-05T11:02:26.378Z,364.00
2022-09-05T11:02:29.554Z,364.00
2022-09-05T11:03:33.644Z,364.00
2022-09-05T11:04:10.000Z,364.00
2022-09-05T11:05:08.916Z,360.00
2022-09-05T11:06:09.619Z,364.00
2022-09-05T11:07:08.866Z,364.00
2022-09-05T11:08:08.851Z,364.00
2022-09-05T11:09:11.282Z,364.00
2022-09-05T11:10:09.967Z,364.00
2022-09-05T11:11:08.832Z,364.00
2022-09-05T11:12:09.794Z,364.00
2022-09-05T11:13:08.804Z,364.00
2022-09-05T11:14:08.778Z,368.00
2022-09-05T11:15:09.782Z,368.00
2022-09-05T11:16:12.730Z,364.00
2022-09-05T11:17:08.740Z,364.00
2022-09-05T11:18:08.742Z,364.00
2022-09-05T11:19:08.719Z,364.00
2022-09-05T11:20:20.770Z,364.00
2022-09-05T11:21:09.737Z,364.00
2022-09-05T11:22:22.904Z,364.00
2022-09-05T11:23:09.669Z,364.00
2022-09-05T11:24:08.686Z,364.00
2022-09-05T11:25:08.685Z,364.00
2022-09-05T11:26:08.664Z,364.00
2022-09-05T11:27:24.948Z,364.00
2022-09-05T11:28:09.626Z,368.00
2022-09-05T11:29:08.650Z,368.00
2022-09-05T11:30:08.624Z,368.00
2022-09-05T11:31:08.675Z,368.00
2022-09-05T11:32:30.349Z,376.00
2022-09-05T11:39:50.834Z,376.00
2022-09-05T11:39:52.067Z,372.00
2022-09-05T11:39:52.354Z,376.00
2022-09-05T11:39:57.302Z,372.00
2022-09-05T11:39:57.826Z,376.00
2022-09-05T11:40:00.370Z,376.00
2022-09-05T11:40:09.798Z,372.00
2022-09-05T11:40:28.270Z,372.00
2022-09-05T11:41:12.922Z,376.00
2022-09-05T11:42:08.517Z,372.00
2022-09-05T11:43:08.451Z,376.00
2022-09-05T11:44:08.473Z,372.00
2022-09-05T11:45:09.448Z,376.00
2022-09-05T11:46:08.501Z,380.00
2022-09-05T11:47:27.916Z,384.00
2022-09-05T11:48:09.423Z,376.00
2022-09-05T11:49:08.419Z,376.00
2022-09-05T11:50:09.378Z,380.00
2022-09-05T11:51:08.372Z,376.00
2022-09-05T11:52:08.366Z,380.00
2022-09-05T11:53:08.342Z,380.00
2022-09-05T11:54:08.328Z,384.00
2022-09-05T11:55:08.334Z,384.00
2022-09-05T11:56:09.354Z,380.00
2022-09-05T11:57:32.573Z,384.00
2022-09-05T11:58:43.255Z,384.00
2022-09-05T11:59:09.275Z,388.00
2022-09-05T12:00:31.964Z,384.00
2022-09-05T12:01:41.788Z,384.00
2022-09-05T12:02:23.311Z,384.00
2022-09-05T12:03:09.224Z,384.00
2022-09-05T12:04:09.845Z,376.00
2022-09-05T12:05:50.089Z,384.00
2022-09-05T12:06:09.716Z,384.00
2022-09-05T12:07:26.237Z,384.00
2022-09-05T12:08:09.294Z,384.00
2022-09-05T12:09:08.186Z,384.00
2022-09-05T12:10:08.151Z,384.00
2022-09-05T12:11:08.143Z,384.00
2022-09-05T12:12:18.695Z,384.00
2022-09-05T12:13:09.123Z,384.00
2022-09-05T12:14:21.304Z,380.00
2022-09-05T12:15:09.112Z,384.00
2022-09-05T12:16:10.334Z,384.00
2022-09-05T12:17:10.263Z,380.00
2022-09-05T12:18:18.853Z,380.00
2022-09-05T12:19:18.929Z,380.00
2022-09-05T12:20:17.155Z,384.00
2022-09-05T12:21:17.496Z,380.00
2022-09-05T12:22:16.204Z,384.00
2022-09-05T12:23:19.563Z,388.00
2022-09-05T12:24:48.158Z,388.00
2022-09-05T12:25:25.711Z,388.00
2022-09-05T12:27:39.511Z,392.00
2022-09-05T12:27:44.878Z,392.00
2022-09-05T12:29:25.996Z,392.00
2022-09-05T12:29:32.841Z,388.00
2022-09-05T12:30:08.948Z,396.00
2022-09-05T12:32:31.157Z,392.00
2022-09-05T12:33:01.424Z,396.00
2022-09-05T12:36:02.502Z,396.00
2022-09-05T12:36:09.769Z,400.00
2022-09-05T12:36:12.957Z,396.00
2022-09-05T12:40:15.695Z,400.00
2022-09-05T12:40:46.154Z,400.00
2022-09-05T12:40:46.237Z,400.00
2022-09-05T12:40:59.543Z,396.00
2022-09-05T12:41:36.873Z,400.00
2022-09-05T12:41:43.842Z,404.00
2022-09-05T12:42:19.947Z,404.00
2022-09-05T12:44:38.963Z,408.00
2022-09-05T12:44:39.060Z,404.00
2022-09-05T12:45:09.072Z,412.00
2022-09-05T12:46:13.073Z,408.00
2022-09-05T12:47:19.133Z,404.00
2022-09-05T12:48:07.773Z,408.00